Time;durP1;ratioP1;P1;durP2;ratioP2;P2;SDS_P1;SDS_P2;PMS_P1;PMS_P2;Temp;Humidity;BMP_temperature;BMP_pressure;BME280_temperature;BME280_humidity;BME280_pressure;Samples;Min_cycle;Max_cycle;Signal;HPM_P1;HPM_P2
2020/12/12 00:00:03;;;;;;;4.85;2.58;;;;;;;;;;5051975;28;20019;-64
2020/12/12 00:02:31;;;;;;;4.72;1.48;;;;;;;;;;5053698;28;20033;-62
2020/12/12 00:04:57;;;;;;;4.18;1.95;;;;;;;;;;5055692;28;20102;-62
2020/12/12 00:07:24;;;;;;;4.55;2.33;;;;;;;;;;5055903;28;20036;-63
2020/12/12 00:09:50;;;;;;;5.35;2.80;;;;;;;;;;5055762;28;20017;-66
2020/12/12 00:12:16;;;;;;;5.50;2.13;;;;;;;;;;5055671;28;20036;-63
2020/12/12 00:14:42;;;;;;;5.70;2.20;;;;;;;;;;5055497;28;20037;-64
2020/12/12 00:17:08;;;;;;;6.57;3.67;;;;;;;;;;5055460;28;20446;-61
2020/12/12 00:19:34;;;;;;;9.32;4.35;;;;;;;;;;5055381;28;20101;-61
2020/12/12 00:22:01;;;;;;;11.32;4.80;;;;;;;;;;5055273;28;20453;-62
2020/12/12 00:24:27;;;;;;;7.80;4.68;;;;;;;;;;5055387;28;20104;-61
2020/12/12 00:26:56;;;;;;;8.38;4.15;;;;;;;;;;5055245;28;20500;-61
2020/12/12 00:29:22;;;;;;;5.82;3.13;;;;;;;;;;5055335;28;20033;-61
2020/12/12 00:31:53;;;;;;;6.53;2.75;;;;;;;;;;5055198;28;20044;-65
2020/12/12 00:34:19;;;;;;;5.25;2.50;;;;;;;;;;5054943;28;20037;-65
2020/12/12 00:36:45;;;;;;;6.55;2.90;;;;;;;;;;5055162;28;20041;-64
2020/12/12 00:39:11;;;;;;;10.00;3.58;;;;;;;;;;5054908;28;20039;-65
2020/12/12 00:41:38;;;;;;;4.30;2.78;;;;;;;;;;5055337;28;20488;-64
2020/12/12 00:44:05;;;;;;;5.68;3.00;;;;;;;;;;5054958;28;20559;-65
2020/12/12 00:46:31;;;;;;;7.28;3.65;;;;;;;;;;5054780;28;20025;-64
2020/12/12 00:48:57;;;;;;;4.85;2.90;;;;;;;;;;5054893;28;20061;-65
2020/12/12 00:51:23;;;;;;;5.97;2.90;;;;;;;;;;5054733;28;20048;-64
2020/12/12 00:53:50;;;;;;;6.03;2.35;;;;;;;;;;5054572;28;20041;-63
2020/12/12 00:56:16;;;;;;;7.68;2.97;;;;;;;;;;5054718;28;20472;-63
2020/12/12 00:58:42;;;;;;;7.78;2.88;;;;;;;;;;5054669;28;20529;-63
2020/12/12 01:01:09;;;;;;;4.88;2.05;;;;;;;;;;5054671;28;20464;-64
2020/12/12 01:03:35;;;;;;;5.60;2.40;;;;;;;;;;5054698;28;20074;-63
2020/12/12 01:06:01;;;;;;;8.18;3.40;;;;;;;;;;5054415;28;20497;-63
2020/12/12 01:08:27;;;;;;;5.53;2.33;;;;;;;;;;5054649;28;20017;-63
2020/12/12 01:10:53;;;;;;;8.32;2.38;;;;;;;;;;5053143;28;20025;-63
2020/12/12 01:13:19;;;;;;;6.53;1.52;;;;;;;;;;5056289;28;20017;-64
2020/12/12 01:15:46;;;;;;;7.60;1.52;;;;;;;;;;5054535;28;20082;-64
2020/12/12 01:18:12;;;;;;;5.80;1.80;;;;;;;;;;5054402;28;20104;-64
2020/12/12 01:20:38;;;;;;;7.75;2.40;;;;;;;;;;5054233;28;20025;-64
2020/12/12 01:23:04;;;;;;;5.78;3.15;;;;;;;;;;5052842;28;20074;-64
2020/12/12 01:25:30;;;;;;;7.75;2.97;;;;;;;;;;5054359;28;20020;-64
2020/12/12 01:27:57;;;;;;;6.75;2.50;;;;;;;;;;5054340;28;20033;-64
2020/12/12 01:30:23;;;;;;;9.00;3.65;;;;;;;;;;5053111;28;20025;-64
2020/12/12 01:32:49;;;;;;;7.97;3.00;;;;;;;;;;5054210;28;20385;-64
2020/12/12 01:35:15;;;;;;;9.98;3.03;;;;;;;;;;5053802;28;20492;-64
2020/12/12 01:37:45;;;;;;;8.90;2.75;;;;;;;;;;5054130;28;20055;-63
2020/12/12 01:40:12;;;;;;;9.95;2.67;;;;;;;;;;5052831;28;20392;-64
2020/12/12 01:42:38;;;;;;;6.38;1.98;;;;;;;;;;5054220;28;20025;-64
2020/12/12 01:45:08;;;;;;;7.85;2.17;;;;;;;;;;5053871;28;20021;-64
2020/12/12 01:47:34;;;;;;;9.32;1.95;;;;;;;;;;5054023;28;20108;-64
2020/12/12 01:50:00;;;;;;;7.88;1.75;;;;;;;;;;5053886;28;20049;-64
2020/12/12 01:52:27;;;;;;;6.85;1.90;;;;;;;;;;5052471;28;20036;-64
2020/12/12 01:54:54;;;;;;;4.70;2.17;;;;;;;;;;5053595;28;20621;-64
2020/12/12 01:57:21;;;;;;;10.68;3.10;;;;;;;;;;5053720;28;20036;-64
2020/12/12 01:59:47;;;;;;;7.82;1.92;;;;;;;;;;5052295;28;20544;-63
2020/12/12 02:02:15;;;;;;;7.60;2.15;;;;;;;;;;5053576;28;20045;-63
2020/12/12 02:04:43;;;;;;;6.57;1.80;;;;;;;;;;5052210;28;20024;-63
2020/12/12 02:07:09;;;;;;;10.30;1.70;;;;;;;;;;5053530;28;20017;-63
2020/12/12 02:09:35;;;;;;;11.13;1.95;;;;;;;;;;5052244;28;20304;-64
2020/12/12 02:12:02;;;;;;;11.20;2.15;;;;;;;;;;5053387;28;20021;-64
2020/12/12 02:14:28;;;;;;;8.77;1.85;;;;;;;;;;5053088;28;20040;-64
2020/12/12 02:16:55;;;;;;;6.07;1.60;;;;;;;;;;5053336;28;20465;-63
2020/12/12 02:19:21;;;;;;;7.32;2.15;;;;;;;;;;5053313;28;20083;-64
2020/12/12 02:21:57;;;;;;;8.85;1.88;;;;;;;;;;5051798;28;20017;-63
2020/12/12 02:24:24;;;;;;;9.38;1.70;;;;;;;;;;5052553;28;20029;-64
2020/12/12 02:26:50;;;;;;;8.23;1.85;;;;;;;;;;5053101;28;20036;-63
2020/12/12 02:29:17;;;;;;;5.47;1.50;;;;;;;;;;5051771;28;20031;-64
2020/12/12 02:31:43;;;;;;;7.50;1.63;;;;;;;;;;5051731;28;20021;-64
2020/12/12 02:34:09;;;;;;;5.97;1.80;;;;;;;;;;5052775;28;20478;-64
2020/12/12 02:36:39;;;;;;;6.45;2.13;;;;;;;;;;5053023;28;20386;-64
2020/12/12 02:39:07;;;;;;;6.18;2.28;;;;;;;;;;5052805;28;20386;-64
2020/12/12 02:41:33;;;;;;;7.15;1.73;;;;;;;;;;5052919;28;20101;-63
2020/12/12 02:43:59;;;;;;;8.30;1.73;;;;;;;;;;5051511;28;20035;-63
2020/12/12 02:46:25;;;;;;;10.30;2.38;;;;;;;;;;5054971;28;20033;-65
2020/12/12 02:48:52;;;;;;;7.95;2.15;;;;;;;;;;5052840;28;20036;-65
2020/12/12 02:51:18;;;;;;;12.20;2.15;;;;;;;;;;5052791;28;20021;-65
2020/12/12 02:53:45;;;;;;;9.13;1.80;;;;;;;;;;5051261;28;20036;-64
2020/12/12 02:56:13;;;;;;;14.70;3.03;;;;;;;;;;5052641;28;20071;-65
2020/12/12 02:58:39;;;;;;;8.73;2.15;;;;;;;;;;5052626;28;20036;-64
2020/12/12 03:01:05;;;;;;;9.32;1.88;;;;;;;;;;5052542;28;20028;-67
2020/12/12 03:03:31;;;;;;;10.98;1.92;;;;;;;;;;5052561;28;20029;-65
2020/12/12 03:05:57;;;;;;;11.20;2.67;;;;;;;;;;5052544;28;20052;-65
2020/12/12 03:08:23;;;;;;;5.38;1.83;;;;;;;;;;5052480;28;20485;-65
2020/12/12 03:10:50;;;;;;;9.45;2.28;;;;;;;;;;5052290;28;20021;-65
2020/12/12 03:13:16;;;;;;;7.93;2.03;;;;;;;;;;5052354;28;20061;-65
2020/12/12 03:15:42;;;;;;;11.88;2.58;;;;;;;;;;5052241;28;20380;-65
2020/12/12 03:18:08;;;;;;;8.20;2.45;;;;;;;;;;5052213;28;20033;-65
2020/12/12 03:20:34;;;;;;;5.25;1.70;;;;;;;;;;5052229;28;20033;-65
2020/12/12 03:23:00;;;;;;;9.13;1.85;;;;;;;;;;5052216;28;20067;-64
2020/12/12 03:25:26;;;;;;;8.15;1.65;;;;;;;;;;5052381;28;20025;-64
2020/12/12 03:27:52;;;;;;;10.10;2.42;;;;;;;;;;5052165;28;20029;-65
2020/12/12 03:30:19;;;;;;;10.00;2.55;;;;;;;;;;5052208;28;20052;-64
2020/12/12 03:32:45;;;;;;;8.55;2.00;;;;;;;;;;5052133;28;20021;-64
2020/12/12 03:35:11;;;;;;;10.57;2.22;;;;;;;;;;5052043;28;20075;-65
2020/12/12 03:37:37;;;;;;;8.45;1.88;;;;;;;;;;5058511;28;20409;-65
2020/12/12 03:40:04;;;;;;;7.10;1.92;;;;;;;;;;5058671;28;20033;-64
2020/12/12 03:42:30;;;;;;;6.70;1.70;;;;;;;;;;5058726;28;20052;-64
2020/12/12 03:44:56;;;;;;;6.03;1.63;;;;;;;;;;5058718;28;20175;-64
2020/12/12 03:47:22;;;;;;;10.88;2.10;;;;;;;;;;5058511;28;20009;-65
2020/12/12 03:49:48;;;;;;;10.13;2.00;;;;;;;;;;5058597;28;20029;-65
2020/12/12 03:52:15;;;;;;;10.32;2.03;;;;;;;;;;5058413;28;20024;-65
2020/12/12 03:54:41;;;;;;;13.40;2.83;;;;;;;;;;5058440;28;20041;-67
2020/12/12 03:57:07;;;;;;;8.38;1.90;;;;;;;;;;5057448;28;20102;-66
2020/12/12 03:59:34;;;;;;;10.50;2.22;;;;;;;;;;5058485;28;20431;-65
2020/12/12 04:02:00;;;;;;;7.50;1.70;;;;;;;;;;5058686;28;20025;-65
2020/12/12 04:04:26;;;;;;;10.43;2.08;;;;;;;;;;5057258;28;20441;-64
2020/12/12 04:06:52;;;;;;;8.50;1.92;;;;;;;;;;5058299;28;20021;-65
2020/12/12 04:09:18;;;;;;;8.57;2.05;;;;;;;;;;5057310;28;20547;-65
2020/12/12 04:11:44;;;;;;;8.70;2.20;;;;;;;;;;5058578;28;20074;-65
2020/12/12 04:14:10;;;;;;;9.82;2.20;;;;;;;;;;5058390;28;20033;-64
2020/12/12 04:16:36;;;;;;;9.65;2.08;;;;;;;;;;5057374;28;20465;-64
2020/12/12 04:19:03;;;;;;;12.55;2.10;;;;;;;;;;5062574;28;20064;-64
2020/12/12 04:21:29;;;;;;;7.22;1.70;;;;;;;;;;5073865;28;20078;-65
2020/12/12 04:23:55;;;;;;;8.75;2.25;;;;;;;;;;5058339;28;20025;-64
2020/12/12 04:26:21;;;;;;;7.82;1.67;;;;;;;;;;5058489;28;20024;-64
2020/12/12 04:28:47;;;;;;;7.95;1.73;;;;;;;;;;5058303;28;20025;-65
2020/12/12 04:31:13;;;;;;;12.55;2.53;;;;;;;;;;5058167;28;20067;-64
2020/12/12 04:33:39;;;;;;;13.95;2.00;;;;;;;;;;5058336;28;20029;-64
2020/12/12 04:36:05;;;;;;;10.75;2.00;;;;;;;;;;5058464;28;20033;-65
2020/12/12 04:38:35;;;;;;;8.35;2.03;;;;;;;;;;5058194;28;20028;-66
2020/12/12 04:41:02;;;;;;;8.68;1.90;;;;;;;;;;5058256;28;20032;-65
2020/12/12 04:43:30;;;;;;;6.90;1.73;;;;;;;;;;5057150;28;20025;-65
2020/12/12 04:45:56;;;;;;;11.65;2.50;;;;;;;;;;5058322;28;20469;-64
2020/12/12 04:48:22;;;;;;;6.07;1.60;;;;;;;;;;5055425;28;20048;-65
2020/12/12 04:50:49;;;;;;;9.35;1.73;;;;;;;;;;5055006;28;20048;-65
2020/12/12 04:53:16;;;;;;;8.70;1.70;;;;;;;;;;5054750;28;20070;-65
2020/12/12 04:55:46;;;;;;;10.07;2.28;;;;;;;;;;5054970;28;20029;-64
2020/12/12 04:58:14;;;;;;;12.02;1.80;;;;;;;;;;5054914;28;20029;-66
2020/12/12 05:00:41;;;;;;;9.88;1.90;;;;;;;;;;5054805;28;20024;-65
2020/12/12 05:03:07;;;;;;;7.93;1.80;;;;;;;;;;5054645;28;20025;-65
2020/12/12 05:05:33;;;;;;;18.40;2.67;;;;;;;;;;5054908;28;20465;-66
2020/12/12 05:08:00;;;;;;;8.82;2.10;;;;;;;;;;5054693;28;20488;-65
2020/12/12 05:10:27;;;;;;;9.25;2.28;;;;;;;;;;5054676;28;20032;-65
2020/12/12 05:12:53;;;;;;;7.90;2.28;;;;;;;;;;5054640;28;20127;-65
2020/12/12 05:15:19;;;;;;;8.00;1.55;;;;;;;;;;5053140;28;20048;-65
2020/12/12 05:17:48;;;;;;;7.10;1.60;;;;;;;;;;5054420;28;20027;-66
2020/12/12 05:20:15;;;;;;;8.27;1.88;;;;;;;;;;5054389;28;20107;-65
2020/12/12 05:22:42;;;;;;;8.18;1.80;;;;;;;;;;5054359;28;20047;-65
2020/12/12 05:25:08;;;;;;;9.57;1.83;;;;;;;;;;5054440;28;20103;-65
2020/12/12 05:27:34;;;;;;;8.95;1.92;;;;;;;;;;5054434;28;20024;-64
2020/12/12 05:30:00;;;;;;;9.43;1.90;;;;;;;;;;5054269;28;20078;-66
2020/12/12 05:32:27;;;;;;;10.93;2.53;;;;;;;;;;5054214;28;20037;-66
2020/12/12 05:34:54;;;;;;;11.20;2.47;;;;;;;;;;5054428;28;20036;-66
2020/12/12 05:37:21;;;;;;;9.57;2.30;;;;;;;;;;5054102;28;20544;-65
2020/12/12 05:39:48;;;;;;;13.25;3.25;;;;;;;;;;5053952;28;20118;-66
2020/12/12 05:42:20;;;;;;;11.68;2.22;;;;;;;;;;5054066;28;20036;-65
2020/12/12 05:44:51;;;;;;;10.02;1.67;;;;;;;;;;5054048;28;20032;-66
2020/12/12 05:47:17;;;;;;;7.50;1.77;;;;;;;;;;5053996;28;20029;-66
2020/12/12 05:49:47;;;;;;;13.13;2.55;;;;;;;;;;5055115;28;20036;-67
2020/12/12 05:52:13;;;;;;;7.03;1.60;;;;;;;;;;5056075;28;20056;-66
2020/12/12 05:54:39;;;;;;;9.70;2.05;;;;;;;;;;5053725;28;20033;-65
2020/12/12 05:57:05;;;;;;;8.32;1.90;;;;;;;;;;5053640;28;20040;-66
2020/12/12 05:59:32;;;;;;;8.43;1.80;;;;;;;;;;5052452;28;20017;-66
2020/12/12 06:01:58;;;;;;;9.13;2.35;;;;;;;;;;5053562;28;20499;-65
2020/12/12 06:04:29;;;;;;;9.38;2.08;;;;;;;;;;5053683;28;20031;-65
2020/12/12 06:06:57;;;;;;;11.43;1.80;;;;;;;;;;5053569;28;20016;-65
2020/12/12 06:09:28;;;;;;;8.13;1.67;;;;;;;;;;5053534;28;20029;-66
2020/12/12 06:11:56;;;;;;;7.40;2.22;;;;;;;;;;5053453;28;20079;-66
2020/12/12 06:14:23;;;;;;;8.43;1.73;;;;;;;;;;5052092;28;20044;-66
2020/12/12 06:16:49;;;;;;;11.00;2.00;;;;;;;;;;5053297;28;20029;-65
2020/12/12 06:19:18;;;;;;;9.02;1.50;;;;;;;;;;5053312;28;20032;-65
2020/12/12 06:21:45;;;;;;;8.98;2.03;;;;;;;;;;5053300;28;20108;-66
2020/12/12 06:24:13;;;;;;;5.93;1.77;;;;;;;;;;5051798;28;20108;-66
2020/12/12 06:26:58;;;;;;;11.82;2.15;;;;;;;;;;5051904;28;20029;-64
2020/12/12 06:29:25;;;;;;;10.13;2.70;;;;;;;;;;5052893;28;20025;-64
2020/12/12 06:31:52;;;;;;;6.90;1.35;;;;;;;;;;5052885;28;20124;-62
2020/12/12 06:34:38;;;;;;;11.93;2.47;;;;;;;;;;5052768;28;20065;-64
2020/12/12 06:37:04;;;;;;;16.23;5.43;;;;;;;;;;5051507;28;20545;-65
2020/12/12 06:39:30;;;;;;;11.00;2.58;;;;;;;;;;5052581;28;20036;-67
2020/12/12 06:41:57;;;;;;;10.65;2.25;;;;;;;;;;5052662;28;20473;-63
2020/12/12 06:44:41;;;;;;;11.50;3.38;;;;;;;;;;5052758;28;20479;-62
2020/12/12 06:47:08;;;;;;;11.18;1.80;;;;;;;;;;5052732;28;20033;-62
2020/12/12 06:49:34;;;;;;;16.10;4.10;;;;;;;;;;5052549;28;20025;-63
2020/12/12 06:52:00;;;;;;;13.20;4.53;;;;;;;;;;5052387;28;20456;-63
2020/12/12 06:54:27;;;;;;;5.70;2.13;;;;;;;;;;5051960;28;20396;-63
2020/12/12 06:56:53;;;;;;;10.23;3.40;;;;;;;;;;5051686;28;20115;-63
2020/12/12 06:59:38;;;;;;;8.07;2.30;;;;;;;;;;5052498;28;20040;-63
2020/12/12 07:02:05;;;;;;;7.75;2.97;;;;;;;;;;5051797;28;20024;-61
2020/12/12 07:04:33;;;;;;;9.15;2.13;;;;;;;;;;5050470;28;20039;-63
2020/12/12 07:07:00;;;;;;;8.77;2.85;;;;;;;;;;5050294;28;20116;-62
2020/12/12 07:09:27;;;;;;;8.55;2.40;;;;;;;;;;5052375;28;20462;-62
2020/12/12 07:11:54;;;;;;;7.30;2.90;;;;;;;;;;5051938;28;20110;-62
2020/12/12 07:14:20;;;;;;;8.25;2.30;;;;;;;;;;5049257;28;20033;-63
2020/12/12 07:16:46;;;;;;;7.97;1.75;;;;;;;;;;5050502;28;20051;-63
2020/12/12 07:19:15;;;;;;;8.23;2.08;;;;;;;;;;5050352;28;20039;-62
2020/12/12 07:21:42;;;;;;;6.40;1.70;;;;;;;;;;5050098;28;20017;-62
2020/12/12 07:24:08;;;;;;;7.53;2.17;;;;;;;;;;5051583;28;20025;-63
2020/12/12 07:26:34;;;;;;;9.40;2.78;;;;;;;;;;5052107;28;20017;-63
2020/12/12 07:29:00;;;;;;;8.07;2.20;;;;;;;;;;5052372;28;20104;-63
2020/12/12 07:31:26;;;;;;;13.15;2.88;;;;;;;;;;5051891;28;20123;-63
2020/12/12 07:33:52;;;;;;;10.80;2.17;;;;;;;;;;5052128;28;20445;-62
2020/12/12 07:36:19;;;;;;;7.95;1.83;;;;;;;;;;5052146;28;20350;-63
2020/12/12 07:38:45;;;;;;;10.95;2.42;;;;;;;;;;5050642;28;20448;-63
2020/12/12 07:41:11;;;;;;;12.10;2.53;;;;;;;;;;5052171;28;20024;-63
2020/12/12 07:43:49;;;;;;;10.00;2.67;;;;;;;;;;5050775;28;20107;-63
2020/12/12 07:46:16;;;;;;;10.60;2.10;;;;;;;;;;5050656;28;20453;-62
2020/12/12 07:48:42;;;;;;;9.48;2.20;;;;;;;;;;5051924;28;20025;-62
2020/12/12 07:51:15;;;;;;;6.95;2.20;;;;;;;;;;5052094;28;20086;-63
2020/12/12 07:53:41;;;;;;;10.95;2.13;;;;;;;;;;5051739;28;20533;-63
2020/12/12 07:56:08;;;;;;;12.82;2.75;;;;;;;;;;5051867;28;20067;-61
2020/12/12 07:58:37;;;;;;;9.15;2.10;;;;;;;;;;5052416;28;20029;-62
2020/12/12 08:01:05;;;;;;;6.60;1.40;;;;;;;;;;5050582;28;20120;-61
2020/12/12 08:03:31;;;;;;;12.33;2.20;;;;;;;;;;5050394;28;20021;-62
2020/12/12 08:06:04;;;;;;;13.52;4.07;;;;;;;;;;5051347;28;20177;-64
2020/12/12 08:08:31;;;;;;;9.43;1.95;;;;;;;;;;5051764;28;20025;-62
2020/12/12 08:10:58;;;;;;;12.20;3.47;;;;;;;;;;5051784;28;20040;-63
2020/12/12 08:13:25;;;;;;;11.30;2.55;;;;;;;;;;5051556;28;20104;-64
2020/12/12 08:16:03;;;;;;;7.28;2.30;;;;;;;;;;5067054;28;20033;-63
2020/12/12 08:18:30;;;;;;;10.82;3.05;;;;;;;;;;5051640;28;20028;-62
2020/12/12 08:21:08;;;;;;;10.10;2.55;;;;;;;;;;5051809;28;20060;-62
2020/12/12 08:23:34;;;;;;;6.75;1.63;;;;;;;;;;5053543;28;20020;-62
2020/12/12 08:26:01;;;;;;;9.52;2.50;;;;;;;;;;5055395;28;20372;-62
2020/12/12 08:28:29;;;;;;;8.35;2.47;;;;;;;;;;5055392;28;20029;-62
2020/12/12 08:30:55;;;;;;;11.67;3.30;;;;;;;;;;5055196;28;20532;-62
2020/12/12 08:33:21;;;;;;;8.80;2.58;;;;;;;;;;5055190;28;20102;-64
2020/12/12 08:35:47;;;;;;;29.90;14.60;;;;;;;;;;5055417;28;20048;-63
2020/12/12 08:38:13;;;;;;;27.17;10.15;;;;;;;;;;5055201;28;20542;-63
2020/12/12 08:40:42;;;;;;;34.47;15.23;;;;;;;;;;5055260;28;20062;-63
2020/12/12 08:43:09;;;;;;;33.33;15.43;;;;;;;;;;5055398;28;20029;-63
2020/12/12 08:45:36;;;;;;;54.40;29.52;;;;;;;;;;5071531;28;20025;-60
2020/12/12 08:48:23;;;;;;;34.88;17.70;;;;;;;;;;5054878;28;20354;-62
2020/12/12 08:50:53;;;;;;;22.00;8.85;;;;;;;;;;5052642;28;20025;-62
2020/12/12 08:53:25;;;;;;;16.60;6.38;;;;;;;;;;5055240;28;20477;-63
2020/12/12 08:56:03;;;;;;;15.40;4.78;;;;;;;;;;5056221;28;20033;-61
2020/12/12 08:59:03;;;;;;;27.90;12.17;;;;;;;;;;5054505;28;20033;-61
2020/12/12 09:01:30;;;;;;;20.98;8.43;;;;;;;;;;5031648;28;20044;-62
2020/12/12 09:03:56;;;;;;;19.10;8.05;;;;;;;;;;5055771;28;20029;-64
2020/12/12 09:06:23;;;;;;;20.83;7.68;;;;;;;;;;5070087;28;20619;-64
2020/12/12 09:09:02;;;;;;;16.23;6.65;;;;;;;;;;5054418;28;20074;-66
2020/12/12 09:11:31;;;;;;;13.38;6.05;;;;;;;;;;5054721;28;20036;-62
2020/12/12 09:13:57;;;;;;;8.60;4.72;;;;;;;;;;5054506;28;20025;-69
2020/12/12 09:16:24;;;;;;;20.05;9.10;;;;;;;;;;5054432;28;20178;-67
2020/12/12 09:18:51;;;;;;;39.35;16.73;;;;;;;;;;5054268;28;20342;-68
2020/12/12 09:21:17;;;;;;;29.95;13.45;;;;;;;;;;5053212;28;20028;-66
2020/12/12 09:23:43;;;;;;;32.75;14.90;;;;;;;;;;5054187;28;20406;-64
2020/12/12 09:26:09;;;;;;;24.23;9.63;;;;;;;;;;5054599;28;20029;-62
2020/12/12 09:28:36;;;;;;;19.45;5.22;;;;;;;;;;5054344;28;20048;-64
2020/12/12 09:31:03;;;;;;;9.95;3.20;;;;;;;;;;5054061;28;20029;-64
2020/12/12 09:33:29;;;;;;;11.23;3.50;;;;;;;;;;5054702;28;20059;-65
2020/12/12 09:35:55;;;;;;;13.90;3.35;;;;;;;;;;5054328;28;20029;-64
2020/12/12 09:38:21;;;;;;;11.68;4.25;;;;;;;;;;5054156;28;20065;-61
2020/12/12 09:40:50;;;;;;;7.18;3.20;;;;;;;;;;5054041;28;20494;-63
2020/12/12 09:43:17;;;;;;;13.15;3.53;;;;;;;;;;5054094;28;20462;-65
2020/12/12 09:45:44;;;;;;;15.95;4.22;;;;;;;;;;5053546;28;20408;-62
2020/12/12 09:48:11;;;;;;;13.13;4.25;;;;;;;;;;5052706;28;20048;-67
2020/12/12 09:50:37;;;;;;;12.70;4.88;;;;;;;;;;5051641;28;20028;-65
2020/12/12 09:53:04;;;;;;;13.38;4.63;;;;;;;;;;5051142;28;20412;-68
2020/12/12 09:55:30;;;;;;;11.32;3.70;;;;;;;;;;5051434;28;20048;-68
2020/12/12 09:57:57;;;;;;;11.80;3.90;;;;;;;;;;5050588;28;20021;-68
2020/12/12 10:00:23;;;;;;;11.05;3.45;;;;;;;;;;5050284;28;20028;-67
2020/12/12 10:02:49;;;;;;;10.02;3.15;;;;;;;;;;5050813;28;20018;-67
2020/12/12 10:05:16;;;;;;;11.98;3.42;;;;;;;;;;5066825;28;20474;-67
2020/12/12 10:07:42;;;;;;;11.18;4.15;;;;;;;;;;5051568;28;20469;-68
2020/12/12 10:10:08;;;;;;;16.95;6.88;;;;;;;;;;5052244;28;20033;-68
2020/12/12 10:12:34;;;;;;;13.43;4.97;;;;;;;;;;5052099;28;20052;-68
2020/12/12 10:15:00;;;;;;;11.88;4.13;;;;;;;;;;5054129;28;20033;-67
2020/12/12 10:17:28;;;;;;;14.20;3.83;;;;;;;;;;5053446;28;20457;-70
2020/12/12 10:19:54;;;;;;;12.93;3.80;;;;;;;;;;5053320;28;20024;-64
2020/12/12 10:22:20;;;;;;;10.90;3.60;;;;;;;;;;5053288;28;20028;-68
2020/12/12 10:24:46;;;;;;;11.57;3.17;;;;;;;;;;5053204;28;20039;-69
2020/12/12 10:27:13;;;;;;;11.38;3.42;;;;;;;;;;5055367;28;20056;-66
2020/12/12 10:29:39;;;;;;;14.43;4.60;;;;;;;;;;5053427;28;20021;-67
2020/12/12 10:32:05;;;;;;;15.45;5.05;;;;;;;;;;5052952;28;20392;-66
2020/12/12 10:34:31;;;;;;;14.07;4.70;;;;;;;;;;5067575;28;20053;-68
2020/12/12 10:36:57;;;;;;;8.60;2.88;;;;;;;;;;5051647;28;20029;-68
2020/12/12 10:39:50;;;;;;;14.15;2.90;;;;;;;;;;5050723;28;20040;-66
2020/12/12 10:42:12;;;;;;;12.75;3.40;;;;;;;;;;5051141;28;20461;-66
2020/12/12 10:44:38;;;;;;;11.45;2.97;;;;;;;;;;5050683;28;20559;-66
2020/12/12 10:47:04;;;;;;;9.45;3.00;;;;;;;;;;5049877;28;20021;-67
2020/12/12 10:49:30;;;;;;;10.27;3.22;;;;;;;;;;5051002;28;20029;-66
2020/12/12 10:51:56;;;;;;;17.13;4.13;;;;;;;;;;5052597;28;20126;-67
2020/12/12 10:54:26;;;;;;;11.23;3.92;;;;;;;;;;5052623;28;20032;-66
2020/12/12 10:56:52;;;;;;;14.50;5.00;;;;;;;;;;5052584;28;20031;-67
2020/12/12 10:59:18;;;;;;;16.00;4.68;;;;;;;;;;5052704;28;20035;-68
2020/12/12 11:01:44;;;;;;;13.75;5.32;;;;;;;;;;5052468;28;20024;-68
2020/12/12 11:04:11;;;;;;;13.45;5.20;;;;;;;;;;5052346;28;20469;-69
2020/12/12 11:06:37;;;;;;;12.48;4.00;;;;;;;;;;5052412;28;20033;-69
2020/12/12 11:09:04;;;;;;;11.85;3.75;;;;;;;;;;5051803;28;20075;-67
2020/12/12 11:11:30;;;;;;;15.32;5.40;;;;;;;;;;5052371;28;20060;-68
2020/12/12 11:13:56;;;;;;;15.52;5.90;;;;;;;;;;5052245;28;20039;-69
2020/12/12 11:16:22;;;;;;;11.43;4.35;;;;;;;;;;5052435;28;20025;-68
2020/12/12 11:18:51;;;;;;;14.05;4.38;;;;;;;;;;5067693;28;20385;-69
2020/12/12 11:21:20;;;;;;;11.07;3.10;;;;;;;;;;5052399;28;20094;-68
2020/12/12 11:23:46;;;;;;;10.00;2.70;;;;;;;;;;5052045;28;20048;-66
2020/12/12 11:26:13;;;;;;;6.13;2.40;;;;;;;;;;5067497;28;20029;-69
2020/12/12 11:28:39;;;;;;;12.73;3.63;;;;;;;;;;5052001;28;20115;-66
2020/12/12 11:31:06;;;;;;;14.13;6.05;;;;;;;;;;5067635;28;20458;-68
2020/12/12 11:33:32;;;;;;;14.10;4.13;;;;;;;;;;5067376;28;20025;-63
2020/12/12 11:36:13;;;;;;;8.90;3.40;;;;;;;;;;5052445;28;20044;-66
2020/12/12 11:38:56;;;;;;;11.60;4.30;;;;;;;;;;5051826;28;20488;-63
2020/12/12 11:46:37;;;;;;;8.93;3.03;;;;;;;;;;5052198;28;20040;-63
2020/12/12 11:49:04;;;;;;;7.63;2.28;;;;;;;;;;5052004;28;20143;-62
2020/12/12 11:51:30;;;;;;;12.55;2.63;;;;;;;;;;5052039;28;20029;-62
2020/12/12 11:53:56;;;;;;;9.73;2.60;;;;;;;;;;5051953;28;20029;-63
2020/12/12 11:56:23;;;;;;;10.43;2.65;;;;;;;;;;5051884;28;20380;-63
2020/12/12 11:58:49;;;;;;;9.80;3.50;;;;;;;;;;5056701;28;20025;-64
2020/12/12 12:01:25;;;;;;;10.25;3.60;;;;;;;;;;5056731;28;20469;-64
2020/12/12 12:03:51;;;;;;;9.45;2.67;;;;;;;;;;5055779;28;20488;-63
2020/12/12 12:06:18;;;;;;;12.82;3.28;;;;;;;;;;5055931;28;20025;-63
2020/12/12 12:11:29;;;;;;;13.52;3.78;;;;;;;;;;5055710;28;20060;-64
2020/12/12 12:13:55;;;;;;;10.15;2.92;;;;;;;;;;5055806;28;20025;-62
2020/12/12 12:16:21;;;;;;;11.00;2.65;;;;;;;;;;5055620;28;20033;-63
2020/12/12 12:18:48;;;;;;;7.40;2.30;;;;;;;;;;5055470;28;20032;-63
2020/12/12 12:21:14;;;;;;;10.85;3.20;;;;;;;;;;5055432;28;20033;-63
2020/12/12 12:23:40;;;;;;;12.85;3.38;;;;;;;;;;5055242;28;20013;-62
2020/12/12 12:26:06;;;;;;;11.00;2.63;;;;;;;;;;5055199;28;20059;-63
2020/12/12 12:28:33;;;;;;;10.18;2.97;;;;;;;;;;5053912;28;20021;-65
2020/12/12 13:13:23;;;;;;;10.27;3.22;;;;;;;;;;5029644;28;20448;-65
2020/12/12 13:15:49;;;;;;;8.10;2.45;;;;;;;;;;5029389;28;20032;-70
2020/12/12 13:18:24;;;;;;;11.05;3.03;;;;;;;;;;5029447;28;20478;-68
2020/12/12 13:21:04;;;;;;;16.95;5.70;;;;;;;;;;5029454;28;20046;-69
2020/12/12 13:23:31;;;;;;;16.63;6.10;;;;;;;;;;5036970;28;20026;-70
2020/12/12 13:25:57;;;;;;;13.07;4.35;;;;;;;;;;5034313;28;20544;-67
2020/12/12 13:29:36;;;;;;;11.00;3.40;;;;;;;;;;5029147;28;20026;-62
2020/12/12 13:31:40;;;;;;;13.90;4.00;;;;;;;;;;5029346;28;20022;-64
2020/12/12 13:34:06;;;;;;;15.30;5.13;;;;;;;;;;5027925;28;20489;-67
2020/12/12 13:36:32;;;;;;;23.90;10.85;;;;;;;;;;5029137;28;20058;-67
2020/12/12 13:38:59;;;;;;;12.05;4.90;;;;;;;;;;5028720;28;20034;-67
2020/12/12 13:41:27;;;;;;;15.80;7.60;;;;;;;;;;5027888;28;20030;-65
2020/12/12 13:43:53;;;;;;;16.95;5.22;;;;;;;;;;5029026;28;20026;-62
2020/12/12 13:46:19;;;;;;;7.85;3.92;;;;;;;;;;5028747;28;20470;-64
2020/12/12 13:48:45;;;;;;;9.73;5.47;;;;;;;;;;5028696;28;20022;-64
2020/12/12 13:51:11;;;;;;;19.58;6.50;;;;;;;;;;5028627;28;20030;-66
2020/12/12 13:53:38;;;;;;;15.45;5.57;;;;;;;;;;5027582;28;20026;-65
2020/12/12 13:56:06;;;;;;;13.27;4.95;;;;;;;;;;5028824;28;20109;-67
2020/12/12 13:58:32;;;;;;;11.60;5.20;;;;;;;;;;5028428;28;20105;-66
2020/12/12 14:00:58;;;;;;;14.27;4.80;;;;;;;;;;5027209;28;20109;-65
2020/12/12 14:03:25;;;;;;;13.80;4.97;;;;;;;;;;5028705;28;20029;-64
2020/12/12 14:05:57;;;;;;;10.77;3.60;;;;;;;;;;5027087;28;20506;-64
2020/12/12 14:11:38;;;;;;;12.25;4.35;;;;;;;;;;5010113;28;20038;-65
2020/12/12 14:25:06;;;;;;;12.75;5.03;;;;;;;;;;5015077;28;20045;-68
2020/12/12 14:30:17;;;;;;;11.38;4.25;;;;;;;;;;5017058;28;20077;-67
2020/12/12 14:32:43;;;;;;;13.00;4.82;;;;;;;;;;5013665;28;20022;-61
2020/12/12 14:35:09;;;;;;;15.05;5.63;;;;;;;;;;5014877;28;20026;-61
2020/12/12 14:37:35;;;;;;;12.13;4.25;;;;;;;;;;5014837;28;20156;-61
2020/12/12 14:40:02;;;;;;;12.00;4.95;;;;;;;;;;5015290;28;20046;-64
2020/12/12 14:42:31;;;;;;;12.63;4.20;;;;;;;;;;5016362;28;20030;-61
2020/12/12 14:44:58;;;;;;;10.15;3.22;;;;;;;;;;5014808;28;20478;-67
2020/12/12 14:47:25;;;;;;;10.50;3.83;;;;;;;;;;5014720;28;20026;-66
2020/12/12 14:49:51;;;;;;;8.73;3.42;;;;;;;;;;5014813;28;20064;-66
2020/12/12 14:52:17;;;;;;;12.90;4.15;;;;;;;;;;5014799;28;20037;-66
2020/12/12 14:54:43;;;;;;;17.40;6.85;;;;;;;;;;5014630;28;20033;-65
2020/12/12 14:57:10;;;;;;;13.80;4.75;;;;;;;;;;5014630;28;20029;-65
2020/12/12 14:59:36;;;;;;;12.70;4.80;;;;;;;;;;5014219;28;20560;-62
2020/12/12 15:02:02;;;;;;;12.85;4.05;;;;;;;;;;5014278;28;20026;-63
2020/12/12 15:04:28;;;;;;;9.50;3.60;;;;;;;;;;5014477;28;20104;-61
2020/12/12 15:06:54;;;;;;;9.02;3.03;;;;;;;;;;5014021;28;20026;-61
2020/12/12 15:09:20;;;;;;;7.32;2.60;;;;;;;;;;5014223;28;20026;-63
2020/12/12 15:11:46;;;;;;;11.80;3.28;;;;;;;;;;5014054;28;20069;-65
2020/12/12 15:14:12;;;;;;;8.63;3.00;;;;;;;;;;5014358;28;20040;-61
2020/12/12 15:16:40;;;;;;;9.75;3.30;;;;;;;;;;5014193;28;20076;-62
2020/12/12 15:19:06;;;;;;;7.22;2.70;;;;;;;;;;5012753;28;20026;-62
2020/12/12 15:21:32;;;;;;;11.93;3.85;;;;;;;;;;5013846;28;20493;-63
2020/12/12 15:23:59;;;;;;;8.52;3.63;;;;;;;;;;5013165;28;20026;-62
2020/12/12 15:26:32;;;;;;;11.65;3.97;;;;;;;;;;5012624;28;20034;-64
2020/12/12 15:28:58;;;;;;;15.63;6.80;;;;;;;;;;5012631;28;20028;-61
2020/12/12 15:31:24;;;;;;;13.73;4.22;;;;;;;;;;5013820;28;20033;-63
2020/12/12 15:33:50;;;;;;;21.45;7.47;;;;;;;;;;5013690;28;20085;-62
2020/12/12 15:36:17;;;;;;;14.50;4.80;;;;;;;;;;5013553;28;20061;-64
2020/12/12 15:38:43;;;;;;;14.43;5.20;;;;;;;;;;5013433;28;20021;-63
2020/12/12 15:41:13;;;;;;;11.95;5.47;;;;;;;;;;5013107;28;20049;-64
2020/12/12 15:43:39;;;;;;;9.88;3.97;;;;;;;;;;5013608;28;20026;-64